createdAt,value
2022-09-06T00:00:34.514Z,20.64
2022-09-06T00:03:06.884Z,20.64
2022-09-06T00:05:39.580Z,20.59
2022-09-06T00:08:11.739Z,20.58
2022-09-06T00:10:44.206Z,20.57
2022-09-06T00:13:16.515Z,20.52
2022-09-06T00:15:48.764Z,20.53
2022-09-06T00:18:20.998Z,20.50
2022-09-06T00:20:53.929Z,20.46
2022-09-06T00:23:26.199Z,20.44
2022-09-06T00:26:06.044Z,20.41
2022-09-06T00:28:38.291Z,20.38
2022-09-06T00:31:15.752Z,20.36
2022-09-06T00:33:48.187Z,20.34
2022-09-06T00:36:21.355Z,20.31
2022-09-06T00:38:53.686Z,20.27
2022-09-06T00:41:26.358Z,20.24
2022-09-06T00:43:58.532Z,20.22
2022-09-06T00:46:33.382Z,20.19
2022-09-06T00:49:08.604Z,20.19
2022-09-06T00:51:41.648Z,20.17
2022-09-06T00:54:13.793Z,20.15
2022-09-06T00:56:47.612Z,20.10
2022-09-06T00:59:20.468Z,20.12
2022-09-06T01:01:53.690Z,20.11
2022-09-06T01:04:27.719Z,20.12
2022-09-06T01:07:09.479Z,20.11
2022-09-06T01:09:56.150Z,20.08
2022-09-06T01:12:39.739Z,20.09
2022-09-06T01:15:25.956Z,20.07
2022-09-06T01:18:10.307Z,20.08
2022-09-06T01:20:53.467Z,20.08
2022-09-06T01:23:52.280Z,20.06
2022-09-06T01:26:58.521Z,20.05
2022-09-06T01:29:38.019Z,20.00
2022-09-06T01:32:18.496Z,19.96
2022-09-06T01:34:55.471Z,19.89
2022-09-06T01:37:28.164Z,19.83
2022-09-06T01:40:00.511Z,19.79
2022-09-06T01:42:36.056Z,19.74
2022-09-06T01:45:09.151Z,19.67
2022-09-06T01:47:53.323Z,19.59
2022-09-06T01:50:46.354Z,19.55
2022-09-06T01:53:45.075Z,19.54
2022-09-06T01:56:32.011Z,19.53
2022-09-06T01:59:25.739Z,19.50
2022-09-06T02:02:07.072Z,19.48
2022-09-06T02:04:46.753Z,19.48
2022-09-06T02:07:23.058Z,19.47
2022-09-06T02:10:01.364Z,19.44
2022-09-06T02:12:36.979Z,19.42
2022-09-06T02:15:09.621Z,19.42
2022-09-06T02:17:46.028Z,19.40
2022-09-06T02:20:21.984Z,19.39
2022-09-06T02:22:57.947Z,19.37
2022-09-06T02:25:35.459Z,19.34
2022-09-06T02:28:08.843Z,19.33
2022-09-06T02:30:44.644Z,19.32
2022-09-06T02:33:21.553Z,19.32
2022-09-06T02:35:56.686Z,19.30
2022-09-06T02:38:29.793Z,19.30
2022-09-06T02:41:02.155Z,19.23
2022-09-06T02:43:34.310Z,19.12
2022-09-06T02:46:06.588Z,19.01
2022-09-06T02:48:38.973Z,18.90
2022-09-06T02:51:12.067Z,18.82
2022-09-06T02:53:44.337Z,18.73
2022-09-06T02:56:16.510Z,18.64
2022-09-06T02:58:50.035Z,18.57
2022-09-06T03:01:22.304Z,18.49
2022-09-06T03:03:54.509Z,18.43
2022-09-06T03:06:26.705Z,18.40
2022-09-06T03:09:00.328Z,18.35
2022-09-06T03:11:32.707Z,18.32
2022-09-06T03:14:04.955Z,18.37
2022-09-06T03:16:38.800Z,18.40
2022-09-06T03:19:11.113Z,18.44
2022-09-06T03:21:43.295Z,18.48
2022-09-06T03:24:15.443Z,18.52
2022-09-06T03:26:47.735Z,18.58
2022-09-06T03:29:19.860Z,18.61
2022-09-06T03:31:52.176Z,18.64
2022-09-06T03:34:24.378Z,18.67
2022-09-06T03:36:56.675Z,18.71
2022-09-06T03:39:29.854Z,18.74
2022-09-06T03:42:02.059Z,18.78
2022-09-06T03:44:34.296Z,18.81
2022-09-06T03:47:07.321Z,18.84
2022-09-06T03:49:39.587Z,18.87
2022-09-06T03:52:11.776Z,18.86
2022-09-06T03:54:43.969Z,18.90
2022-09-06T03:57:16.159Z,18.93
2022-09-06T03:59:48.307Z,18.94
2022-09-06T04:02:20.542Z,18.95
2022-09-06T04:04:55.648Z,18.97
2022-09-06T04:07:27.867Z,18.98
2022-09-06T04:10:00.060Z,18.96
2022-09-06T04:12:32.327Z,18.90
2022-09-06T04:15:04.963Z,18.86
2022-09-06T04:17:37.244Z,18.86
2022-09-06T04:20:11.423Z,18.87
2022-09-06T04:22:43.614Z,18.88
2022-09-06T04:25:15.754Z,18.88
2022-09-06T04:27:47.896Z,18.90
2022-09-06T04:30:20.179Z,18.87
2022-09-06T04:32:52.410Z,18.88
2022-09-06T04:35:24.615Z,18.88
2022-09-06T04:37:56.764Z,18.89
2022-09-06T04:40:28.928Z,18.92
2022-09-06T04:43:01.095Z,18.93
2022-09-06T04:45:33.377Z,18.95
2022-09-06T04:48:05.950Z,18.97
2022-09-06T04:50:38.684Z,18.99
2022-09-06T04:53:12.002Z,19.02
2022-09-06T04:55:44.233Z,19.03
2022-09-06T04:58:16.395Z,19.04
2022-09-06T05:00:48.590Z,19.03
2022-09-06T05:03:21.020Z,19.05
2022-09-06T05:05:53.205Z,19.10
2022-09-06T05:08:25.776Z,19.15
2022-09-06T05:10:57.958Z,19.18
2022-09-06T05:13:30.251Z,19.21
2022-09-06T05:16:05.439Z,19.21
2022-09-06T05:18:38.072Z,19.18
2022-09-06T05:21:10.419Z,19.22
2022-09-06T05:23:43.005Z,19.26
2022-09-06T05:26:15.190Z,19.29
2022-09-06T05:28:47.496Z,19.29
2022-09-06T05:31:30.057Z,19.24
2022-09-06T05:34:03.055Z,19.18
2022-09-06T05:36:35.637Z,19.18
2022-09-06T05:39:07.853Z,19.14
2022-09-06T05:41:40.040Z,19.16
2022-09-06T05:44:12.325Z,19.22
2022-09-06T05:46:46.976Z,19.27
2022-09-06T05:49:19.234Z,19.34
2022-09-06T05:51:54.648Z,19.37
2022-09-06T05:54:26.914Z,19.42
2022-09-06T05:56:59.096Z,19.45
2022-09-06T05:59:31.310Z,19.46
2022-09-06T06:02:07.215Z,19.48
2022-09-06T06:04:39.820Z,19.52
2022-09-06T06:07:12.038Z,19.44
2022-09-06T06:09:44.799Z,19.40
2022-09-06T06:12:17.003Z,19.40
2022-09-06T06:14:49.228Z,19.44
2022-09-06T06:17:21.381Z,19.48
2022-09-06T06:19:53.644Z,19.51
2022-09-06T06:22:25.809Z,19.55
2022-09-06T06:24:58.552Z,19.60
2022-09-06T06:27:30.999Z,19.65
2022-09-06T06:30:03.180Z,19.70
2022-09-06T06:32:35.374Z,19.75
2022-09-06T06:35:09.726Z,19.78
2022-09-06T06:37:42.459Z,19.79
2022-09-06T06:40:15.088Z,19.80
2022-09-06T06:42:47.316Z,19.87
2022-09-06T06:45:22.245Z,19.95
2022-09-06T06:47:54.474Z,20.02
2022-09-06T06:50:26.746Z,20.08
2022-09-06T06:52:58.964Z,20.14
2022-09-06T06:55:31.223Z,20.19
2022-09-06T06:58:04.414Z,20.21
2022-09-06T07:00:38.744Z,20.32
2022-09-06T07:03:11.661Z,20.35
2022-09-06T07:08:38.416Z,20.39
2022-09-06T07:11:12.203Z,20.41
2022-09-06T07:13:44.563Z,20.45
2022-09-06T07:16:19.407Z,20.51
2022-09-06T07:18:53.992Z,20.54
2022-09-06T07:21:43.431Z,20.61
2022-09-06T07:24:16.147Z,20.70
2022-09-06T07:29:40.457Z,20.87
2022-09-06T07:32:12.760Z,21.00
2022-09-06T07:34:45.222Z,21.21
2022-09-06T07:37:17.363Z,21.52
2022-09-06T07:39:49.868Z,21.83
2022-09-06T07:42:22.086Z,22.07
2022-09-06T07:44:57.793Z,22.21
2022-09-06T07:53:16.678Z,22.42
2022-09-06T07:55:54.023Z,22.43
2022-09-06T07:58:26.295Z,22.44
2022-09-06T08:01:17.870Z,22.48
2022-09-06T08:03:50.616Z,22.55
2022-09-06T08:06:24.180Z,22.61
2022-09-06T08:11:35.731Z,22.58
2022-09-06T08:14:10.026Z,22.63
2022-09-06T08:16:42.554Z,22.67
2022-09-06T08:19:14.867Z,22.69
2022-09-06T08:21:47.062Z,22.72
2022-09-06T08:24:19.308Z,22.76
2022-09-06T08:26:51.565Z,22.82
2022-09-06T08:29:23.708Z,22.87
2022-09-06T08:31:55.951Z,22.92
2022-09-06T08:34:28.435Z,22.94
2022-09-06T08:37:00.684Z,23.01
2022-09-06T08:39:32.959Z,23.10
2022-09-06T08:42:07.123Z,23.17
2022-09-06T08:44:58.463Z,23.24
2022-09-06T08:47:31.167Z,23.45
2022-09-06T08:50:07.724Z,23.72
2022-09-06T08:55:55.456Z,24.29
2022-09-06T08:58:54.727Z,24.40
2022-09-06T09:01:31.433Z,24.59
2022-09-06T09:04:09.313Z,24.90
2022-09-06T09:06:41.648Z,25.09
2022-09-06T09:09:17.909Z,25.20
2022-09-06T09:11:53.069Z,25.47
2022-09-06T09:14:30.466Z,25.83
2022-09-06T09:17:07.883Z,26.06
2022-09-06T09:19:43.216Z,26.46
2022-09-06T09:22:14.784Z,26.88
2022-09-06T09:24:48.483Z,27.25
2022-09-06T09:27:24.329Z,27.46
2022-09-06T09:32:59.556Z,27.89
2022-09-06T09:35:38.315Z,27.97
2022-09-06T09:38:14.066Z,27.98
2022-09-06T09:40:53.890Z,28.01
2022-09-06T09:43:29.733Z,27.85
2022-09-06T09:46:14.852Z,27.74
2022-09-06T09:49:02.181Z,27.67
2022-09-06T09:51:35.627Z,27.87
2022-09-06T09:54:09.774Z,28.08
2022-09-06T09:56:46.923Z,27.94
2022-09-06T09:59:26.009Z,27.60
2022-09-06T10:02:01.643Z,27.71
2022-09-06T10:04:44.753Z,28.01
2022-09-06T10:07:20.540Z,28.09
2022-09-06T10:09:59.466Z,28.05
2022-09-06T10:12:38.992Z,28.27
2022-09-06T10:15:14.174Z,28.62
2022-09-06T10:17:51.126Z,28.97
2022-09-06T10:20:33.480Z,29.16
2022-09-06T10:23:13.718Z,29.30
2022-09-06T10:25:49.765Z,29.38
2022-09-06T10:28:41.945Z,29.44
2022-09-06T10:31:50.146Z,29.36
2022-09-06T10:34:46.097Z,29.09
2022-09-06T10:37:24.323Z,28.77
2022-09-06T10:40:04.389Z,28.81
2022-09-06T10:42:44.222Z,28.60
2022-09-06T10:45:28.628Z,28.34
2022-09-06T10:48:04.886Z,28.21
2022-09-06T10:50:47.300Z,28.25
2022-09-06T10:53:32.336Z,28.15
2022-09-06T10:56:10.136Z,28.25
2022-09-06T11:01:46.045Z,28.37
2022-09-06T11:04:26.777Z,28.28
2022-09-06T11:07:04.917Z,28.19
2022-09-06T11:09:42.769Z,28.20
2022-09-06T11:12:19.878Z,28.21
2022-09-06T11:14:52.970Z,28.22
2022-09-06T11:17:35.305Z,28.11
2022-09-06T11:20:12.775Z,27.82
2022-09-06T11:23:20.362Z,27.60
2022-09-06T11:26:24.899Z,27.47
2022-09-06T11:28:59.396Z,27.37
2022-09-06T11:34:29.251Z,27.16
2022-09-06T11:37:02.943Z,27.05
2022-09-06T11:43:13.469Z,26.73
2022-09-06T11:45:48.594Z,26.56
2022-09-06T11:48:45.010Z,26.45
2022-09-06T11:51:35.308Z,26.42
2022-09-06T11:54:35.932Z,26.39
2022-09-06T11:57:16.604Z,26.37
2022-09-06T12:00:00.589Z,26.35
2022-09-06T12:02:38.355Z,26.34
2022-09-06T12:05:26.581Z,26.20
2022-09-06T12:08:32.025Z,26.05
2022-09-06T12:11:23.063Z,25.97
2022-09-06T12:14:03.355Z,25.84
2022-09-06T12:17:09.999Z,25.77
2022-09-06T12:19:49.330Z,25.63
2022-09-06T12:23:06.999Z,25.55
2022-09-06T12:25:58.614Z,25.43
2022-09-06T12:28:48.518Z,25.35
2022-09-06T12:31:40.679Z,25.36
2022-09-06T12:34:15.915Z,25.32
2022-09-06T12:36:54.996Z,25.23
2022-09-06T12:39:27.513Z,25.12
2022-09-06T12:42:02.040Z,25.06
2022-09-06T12:44:37.720Z,25.02
2022-09-06T12:47:17.755Z,24.98
2022-09-06T12:50:05.576Z,24.92
2022-09-06T12:52:47.399Z,24.89
2022-09-06T12:55:24.347Z,24.87
2022-09-06T12:57:58.175Z,24.81
2022-09-06T13:00:36.236Z,24.79
2022-09-06T13:03:24.586Z,24.76
2022-09-06T13:05:59.494Z,24.70
2022-09-06T13:08:37.558Z,24.63
2022-09-06T13:11:14.576Z,24.57
2022-09-06T13:13:52.379Z,24.47
2022-09-06T13:16:26.807Z,24.42
2022-09-06T13:19:14.544Z,24.41
2022-09-06T13:21:48.236Z,24.44
2022-09-06T13:24:25.489Z,24.49
2022-09-06T13:26:57.927Z,24.58
2022-09-06T13:29:33.343Z,24.66
2022-09-06T13:32:09.736Z,24.74
2022-09-06T13:34:57.055Z,24.76
2022-09-06T13:37:32.700Z,24.78
2022-09-06T13:40:25.080Z,24.75
2022-09-06T13:43:03.908Z,24.76
2022-09-06T13:45:36.415Z,24.77
2022-09-06T13:48:28.384Z,24.75
2022-09-06T13:51:00.966Z,24.72
2022-09-06T13:53:33.241Z,24.68
2022-09-06T13:56:08.871Z,24.67
2022-09-06T13:58:41.189Z,24.73
2022-09-06T14:01:14.702Z,24.76
2022-09-06T14:03:47.376Z,24.79
2022-09-06T14:06:19.529Z,24.83
2022-09-06T14:09:08.255Z,24.85
2022-09-06T14:11:42.881Z,24.85
2022-09-06T14:14:18.964Z,24.82
2022-09-06T14:16:51.214Z,24.79
2022-09-06T14:19:23.474Z,24.79
2022-09-06T14:21:55.892Z,24.80
2022-09-06T14:24:28.253Z,24.83
2022-09-06T14:27:00.509Z,24.86
2022-09-06T14:29:32.956Z,24.88
2022-09-06T14:32:05.726Z,24.88
2022-09-06T14:34:37.932Z,24.90
2022-09-06T14:37:13.397Z,24.89
2022-09-06T14:39:46.130Z,24.90
2022-09-06T14:42:18.401Z,24.90
2022-09-06T14:44:50.676Z,24.92
2022-09-06T14:47:23.253Z,24.93
2022-09-06T14:49:55.507Z,24.91
2022-09-06T14:52:27.853Z,24.90
2022-09-06T14:55:00.127Z,24.92
2022-09-06T14:57:32.714Z,24.93
2022-09-06T15:00:08.385Z,24.93
2022-09-06T15:02:41.106Z,24.88
2022-09-06T15:05:13.667Z,24.87
2022-09-06T15:07:46.613Z,24.84
2022-09-06T15:10:19.523Z,24.80
2022-09-06T15:12:51.896Z,24.74
2022-09-06T15:15:24.344Z,24.73
2022-09-06T15:17:57.150Z,24.69
2022-09-06T15:20:29.452Z,24.64
2022-09-06T15:23:24.372Z,24.61
2022-09-06T15:25:54.738Z,24.56
2022-09-06T15:28:27.051Z,24.51
2022-09-06T15:30:59.733Z,24.40
2022-09-06T15:33:34.009Z,24.30
2022-09-06T15:36:08.727Z,24.23
2022-09-06T15:38:44.182Z,24.19
2022-09-06T15:41:18.475Z,24.18
2022-09-06T15:43:52.028Z,24.18
2022-09-06T15:46:44.783Z,24.15
2022-09-06T15:49:18.911Z,24.13
2022-09-06T15:51:51.394Z,24.11
2022-09-06T15:54:45.355Z,24.06
2022-09-06T15:57:18.645Z,24.02
2022-09-06T15:59:50.917Z,24.00
2022-09-06T16:02:23.340Z,23.97
2022-09-06T16:04:55.929Z,23.95
2022-09-06T16:07:28.185Z,23.94
2022-09-06T16:10:01.293Z,23.95
2022-09-06T16:12:33.689Z,23.95
2022-09-06T16:15:07.135Z,23.94
2022-09-06T16:17:39.416Z,23.91
2022-09-06T16:20:12.555Z,23.88
2022-09-06T16:22:44.849Z,23.85
2022-09-06T16:25:17.288Z,23.80
2022-09-06T16:27:49.664Z,23.74
2022-09-06T16:30:22.200Z,23.68
2022-09-06T16:32:54.420Z,23.62
2022-09-06T16:35:26.680Z,23.57
2022-09-06T16:38:01.337Z,23.49
2022-09-06T16:40:33.840Z,23.43
2022-09-06T16:43:06.240Z,23.38
2022-09-06T16:45:38.604Z,23.32
2022-09-06T16:48:11.690Z,23.26
2022-09-06T16:50:44.200Z,23.18
2022-09-06T16:53:21.483Z,23.11
2022-09-06T16:55:54.463Z,23.04
2022-09-06T16:58:26.745Z,22.99
2022-09-06T17:00:59.739Z,22.94
2022-09-06T17:03:32.085Z,22.88
2022-09-06T17:06:05.071Z,22.83
2022-09-06T17:08:38.664Z,22.78
2022-09-06T17:11:12.672Z,22.73
2022-09-06T17:13:46.594Z,22.67
2022-09-06T17:16:36.859Z,22.61
2022-09-06T17:19:10.454Z,22.54
2022-09-06T17:21:43.860Z,22.45
2022-09-06T17:24:16.745Z,22.37
2022-09-06T17:26:49.145Z,22.31
2022-09-06T17:29:21.735Z,22.26
2022-09-06T17:31:54.022Z,22.22
2022-09-06T17:34:26.423Z,22.17
2022-09-06T17:36:58.672Z,22.14
2022-09-06T17:39:31.115Z,22.10
2022-09-06T17:42:03.476Z,22.04
2022-09-06T17:44:35.725Z,21.98
2022-09-06T17:47:12.992Z,21.93
2022-09-06T17:49:47.460Z,21.87
2022-09-06T17:52:19.707Z,21.84
2022-09-06T17:54:52.239Z,21.81
2022-09-06T17:57:24.616Z,21.78
2022-09-06T17:59:56.952Z,21.73
2022-09-06T18:02:29.505Z,21.67
2022-09-06T18:05:01.842Z,21.63
2022-09-06T18:07:34.321Z,21.58
2022-09-06T18:10:08.390Z,21.55
2022-09-06T18:12:41.119Z,21.52
2022-09-06T18:15:13.847Z,21.50
2022-09-06T18:17:46.217Z,21.47
2022-09-06T18:20:18.687Z,21.44
2022-09-06T18:22:50.944Z,21.42
2022-09-06T18:25:23.180Z,21.40
2022-09-06T18:27:55.444Z,21.39
2022-09-06T18:30:27.882Z,21.38
2022-09-06T18:33:00.123Z,21.33
2022-09-06T18:35:32.495Z,21.32
2022-09-06T18:38:04.769Z,21.29
2022-09-06T18:40:37.036Z,21.27
2022-09-06T18:43:09.867Z,21.24
2022-09-06T18:45:42.893Z,21.22
2022-09-06T18:48:16.085Z,21.20
2022-09-06T18:50:48.623Z,21.18
2022-09-06T18:53:21.088Z,21.16
2022-09-06T18:55:55.105Z,21.14
2022-09-06T18:58:27.588Z,21.12
2022-09-06T19:01:07.919Z,21.10
2022-09-06T19:03:41.998Z,21.07
2022-09-06T19:06:15.747Z,21.05
2022-09-06T19:08:48.893Z,21.00
2022-09-06T19:11:22.915Z,20.97
2022-09-06T19:13:57.664Z,20.93
2022-09-06T19:16:31.750Z,20.92
2022-09-06T19:19:07.594Z,20.92
2022-09-06T19:21:42.246Z,20.92
2022-09-06T19:24:16.342Z,20.94
2022-09-06T19:26:48.587Z,20.95
2022-09-06T19:29:21.287Z,20.94
2022-09-06T19:31:54.586Z,20.94
2022-09-06T19:34:27.099Z,20.93
2022-09-06T19:36:59.456Z,20.90
2022-09-06T19:39:36.863Z,20.89
2022-09-06T19:42:10.076Z,20.89
2022-09-06T19:44:42.321Z,20.87
2022-09-06T19:47:14.642Z,20.86
2022-09-06T19:49:47.051Z,20.83
2022-09-06T19:52:19.390Z,20.79
2022-09-06T19:54:51.652Z,20.77
2022-09-06T19:57:23.855Z,20.74
2022-09-06T19:59:56.295Z,20.71
2022-09-06T20:02:28.609Z,20.69
2022-09-06T20:05:00.991Z,20.67
2022-09-06T20:07:33.340Z,20.65
2022-09-06T20:10:06.596Z,20.62
2022-09-06T20:12:39.813Z,20.60
2022-09-06T20:15:14.002Z,20.58
2022-09-06T20:17:46.282Z,20.54
2022-09-06T20:20:18.883Z,20.52
2022-09-06T20:22:51.180Z,20.46
2022-09-06T20:25:23.440Z,20.43
2022-09-06T20:27:55.773Z,20.41
2022-09-06T20:30:30.317Z,20.39
2022-09-06T20:33:02.634Z,20.37
2022-09-06T20:35:34.918Z,20.33
2022-09-06T20:38:07.679Z,20.28
2022-09-06T20:40:39.979Z,20.21
2022-09-06T20:43:12.236Z,20.13
2022-09-06T20:45:46.998Z,20.10
2022-09-06T20:48:19.377Z,20.08
2022-09-06T20:50:58.985Z,20.06
2022-09-06T20:53:31.995Z,20.05
2022-09-06T20:56:06.465Z,20.03
2022-09-06T20:58:39.126Z,20.04
2022-09-06T21:01:15.252Z,20.03
2022-09-06T21:03:47.619Z,20.00
2022-09-06T21:06:20.703Z,19.99
2022-09-06T21:08:53.252Z,19.97
2022-09-06T21:11:25.862Z,19.95
2022-09-06T21:13:59.180Z,19.94
2022-09-06T21:16:32.042Z,19.91
2022-09-06T21:19:06.459Z,19.88
2022-09-06T21:21:39.366Z,19.84
2022-09-06T21:24:12.748Z,19.81
2022-09-06T21:26:46.506Z,19.78
2022-09-06T21:29:18.825Z,19.74
2022-09-06T21:31:51.241Z,19.70
2022-09-06T21:34:23.632Z,19.67
2022-09-06T21:36:55.975Z,19.62
2022-09-06T21:39:28.308Z,19.57
2022-09-06T21:42:00.598Z,19.52
2022-09-06T21:44:32.969Z,19.48
2022-09-06T21:47:05.808Z,19.43
2022-09-06T21:49:38.640Z,19.40
2022-09-06T21:52:10.981Z,19.37
2022-09-06T21:54:43.211Z,19.31
2022-09-06T21:57:15.411Z,19.32
2022-09-06T21:59:47.691Z,19.29
2022-09-06T22:02:19.974Z,19.26
2022-09-06T22:04:52.385Z,19.24
2022-09-06T22:07:24.574Z,19.22
2022-09-06T22:09:56.803Z,19.19
2022-09-06T22:12:29.026Z,19.14
2022-09-06T22:15:01.280Z,19.14
2022-09-06T22:17:33.598Z,19.11
2022-09-06T22:20:07.176Z,19.07
2022-09-06T22:22:39.475Z,19.04
2022-09-06T22:25:12.668Z,18.96
2022-09-06T22:27:44.933Z,18.95
2022-09-06T22:30:17.409Z,18.92
2022-09-06T22:32:49.757Z,18.89
2022-09-06T22:35:22.890Z,18.82
2022-09-06T22:37:55.234Z,18.81
2022-09-06T22:40:27.552Z,18.77
2022-09-06T22:43:00.010Z,18.73
2022-09-06T22:45:32.887Z,18.71
2022-09-06T22:48:05.558Z,18.69
2022-09-06T22:50:37.935Z,18.68
2022-09-06T22:53:10.632Z,18.63
2022-09-06T22:55:47.390Z,18.60
2022-09-06T22:58:19.726Z,18.57
2022-09-06T23:00:52.119Z,18.53
2022-09-06T23:03:24.935Z,18.50
2022-09-06T23:06:02.715Z,18.48
2022-09-06T23:08:35.902Z,18.47
2022-09-06T23:11:10.257Z,18.45
2022-09-06T23:13:44.325Z,18.43
2022-09-06T23:16:18.878Z,18.40
2022-09-06T23:18:51.491Z,18.39
2022-09-06T23:21:26.157Z,18.37
2022-09-06T23:23:59.113Z,18.36
2022-09-06T23:26:33.553Z,18.36
2022-09-06T23:29:05.810Z,18.38
2022-09-06T23:31:38.204Z,18.42
2022-09-06T23:34:10.550Z,18.47
2022-09-06T23:36:43.057Z,18.51
2022-09-06T23:39:15.327Z,18.54
2022-09-06T23:41:47.640Z,18.57
2022-09-06T23:44:19.869Z,18.58
2022-09-06T23:46:52.280Z,18.60
2022-09-06T23:49:24.588Z,18.60
2022-09-06T23:51:56.853Z,18.60
2022-09-06T23:54:29.207Z,18.59
2022-09-06T23:57:01.540Z,18.57
2022-09-06T23:59:35.026Z,18.52
